createdAt,value
2022-09-28T00:01:21.810Z,95307.28
2022-09-28T00:03:49.975Z,95292.13
2022-09-28T00:06:19.387Z,95283.19
2022-09-28T00:08:46.011Z,95289.00
2022-09-28T00:11:15.199Z,95276.41
2022-09-28T00:13:46.028Z,95277.66
2022-09-28T00:16:15.477Z,95274.34
2022-09-28T00:18:42.312Z,95271.84
2022-09-28T00:21:12.771Z,95274.66
2022-09-28T00:23:59.623Z,95266.81
2022-09-28T00:26:27.304Z,95259.47
2022-09-28T00:28:59.747Z,95246.88
2022-09-28T00:31:32.673Z,95244.19
2022-09-28T00:34:00.621Z,95259.25
2022-09-28T00:36:28.755Z,95246.97
2022-09-28T00:38:58.975Z,95230.50
2022-09-28T00:41:27.477Z,95227.69
2022-09-28T00:44:15.022Z,95231.16
2022-09-28T00:46:41.740Z,95228.69
2022-09-28T00:49:14.947Z,95222.22
2022-09-28T00:51:43.943Z,95217.25
2022-09-28T00:54:12.620Z,95207.66
2022-09-28T00:56:43.784Z,95207.56
2022-09-28T00:59:10.855Z,95196.81
2022-09-28T01:01:37.656Z,95203.78
2022-09-28T01:04:05.601Z,95191.41
2022-09-28T01:06:35.674Z,95205.47
2022-09-28T01:09:06.895Z,95196.53
2022-09-28T01:11:36.642Z,95204.81
2022-09-28T01:14:05.911Z,95200.72
2022-09-28T01:16:41.349Z,95202.88
2022-09-28T01:19:13.646Z,95200.28
2022-09-28T01:21:52.367Z,95189.09
2022-09-28T01:24:30.081Z,95211.97
2022-09-28T01:27:05.915Z,95215.84
2022-09-28T01:29:51.715Z,95205.31
2022-09-28T01:32:43.369Z,95216.13
2022-09-28T01:35:43.780Z,95222.25
2022-09-28T01:38:21.105Z,95213.50
2022-09-28T01:40:48.435Z,95213.88
2022-09-28T01:43:20.231Z,95208.69
2022-09-28T01:45:50.809Z,95203.28
2022-09-28T01:48:29.213Z,95195.47
2022-09-28T01:50:59.391Z,95180.09
2022-09-28T01:53:32.435Z,95187.28
2022-09-28T01:56:06.956Z,95183.47
2022-09-28T01:58:38.635Z,95195.28
2022-09-28T02:01:15.441Z,95184.75
2022-09-28T02:03:50.028Z,95181.63
2022-09-28T02:06:21.608Z,95185.72
2022-09-28T02:08:57.301Z,95181.88
2022-09-28T02:11:23.881Z,95167.44
2022-09-28T02:13:56.184Z,95178.06
2022-09-28T02:16:31.337Z,95167.88
2022-09-28T02:18:58.242Z,95166.25
2022-09-28T02:21:32.147Z,95159.50
2022-09-28T02:24:06.586Z,95159.84
2022-09-28T02:26:38.962Z,95169.72
2022-09-28T02:29:05.319Z,95168.19
2022-09-28T02:31:31.919Z,95154.09
2022-09-28T02:33:59.065Z,95151.31
2022-09-28T02:36:27.513Z,95157.78
2022-09-28T02:38:54.190Z,95158.75
2022-09-28T02:41:46.102Z,95153.00
2022-09-28T02:44:31.969Z,95161.50
2022-09-28T02:47:37.495Z,95168.28
2022-09-28T02:50:24.535Z,95156.88
2022-09-28T02:53:08.718Z,95157.81
2022-09-28T02:55:47.219Z,95152.66
2022-09-28T02:58:40.187Z,95153.38
2022-09-28T03:01:33.820Z,95159.09
2022-09-28T03:04:24.093Z,95159.09
2022-09-28T03:06:59.710Z,95148.13
2022-09-28T03:09:45.458Z,95149.31
2022-09-28T03:12:15.451Z,95152.53
2022-09-28T03:14:41.825Z,95148.56
2022-09-28T03:17:08.182Z,95142.66
2022-09-28T03:19:36.671Z,95151.25
2022-09-28T03:22:03.153Z,95152.53
2022-09-28T03:24:29.531Z,95161.16
2022-09-28T03:26:55.878Z,95165.16
2022-09-28T03:29:22.259Z,95152.13
2022-09-28T03:31:49.083Z,95152.53
2022-09-28T03:34:15.706Z,95154.06
2022-09-28T03:36:42.879Z,95152.69
2022-09-28T03:39:09.205Z,95141.41
2022-09-28T03:41:35.566Z,95160.53
2022-09-28T03:44:02.155Z,95145.84
2022-09-28T03:46:28.501Z,95161.09
2022-09-28T03:48:57.164Z,95160.22
2022-09-28T03:51:23.699Z,95163.25
2022-09-28T03:53:50.047Z,95159.28
2022-09-28T03:56:17.355Z,95138.19
2022-09-28T03:58:43.740Z,95149.13
2022-09-28T04:01:16.527Z,95158.22
2022-09-28T04:03:44.484Z,95155.22
2022-09-28T04:06:10.998Z,95156.50
2022-09-28T04:08:37.457Z,95152.63
2022-09-28T04:11:03.891Z,95157.13
2022-09-28T04:13:30.795Z,95171.66
2022-09-28T04:15:59.326Z,95168.13
2022-09-28T04:18:25.844Z,95162.19
2022-09-28T04:21:06.627Z,95163.38
2022-09-28T04:23:35.454Z,95159.84
2022-09-28T04:26:06.808Z,95162.38
2022-09-28T04:28:52.078Z,95172.91
2022-09-28T04:31:21.935Z,95172.19
2022-09-28T04:33:48.696Z,95166.47
2022-09-28T04:36:15.198Z,95172.28
2022-09-28T04:38:52.692Z,95174.97
2022-09-28T04:41:22.082Z,95185.63
2022-09-28T04:43:48.533Z,95161.97
2022-09-28T04:46:15.157Z,95174.88
2022-09-28T04:48:41.539Z,95170.88
2022-09-28T04:51:07.938Z,95182.06
2022-09-28T04:53:35.066Z,95172.38
2022-09-28T04:56:11.199Z,95184.88
2022-09-28T04:58:38.271Z,95181.09
2022-09-28T05:01:11.055Z,95174.88
2022-09-28T05:03:38.240Z,95186.38
2022-09-28T05:06:06.827Z,95186.06
2022-09-28T05:08:35.214Z,95188.00
2022-09-28T05:11:06.910Z,95182.84
2022-09-28T05:13:40.261Z,95182.00
2022-09-28T05:16:06.703Z,95186.41
2022-09-28T05:18:33.064Z,95181.97
2022-09-28T05:20:59.427Z,95182.53
2022-09-28T05:23:25.784Z,95184.00
2022-09-28T05:25:52.123Z,95191.75
2022-09-28T05:28:28.181Z,95187.00
2022-09-28T05:31:05.149Z,95196.34
2022-09-28T05:33:32.832Z,95188.50
2022-09-28T05:36:01.509Z,95184.19
2022-09-28T05:38:28.845Z,95189.16
2022-09-28T05:40:55.756Z,95193.34
2022-09-28T05:43:22.677Z,95180.75
2022-09-28T05:45:54.292Z,95186.88
2022-09-28T05:48:21.656Z,95185.47
2022-09-28T05:50:52.333Z,95195.38
2022-09-28T05:53:19.108Z,95196.91
2022-09-28T05:55:45.543Z,95186.56
2022-09-28T05:58:11.944Z,95181.50
2022-09-28T06:00:38.289Z,95192.28
2022-09-28T06:03:09.240Z,95191.41
2022-09-28T06:05:36.894Z,95197.09
2022-09-28T06:08:05.214Z,95196.34
2022-09-28T06:10:33.247Z,95205.41
2022-09-28T06:13:00.530Z,95212.09
2022-09-28T06:15:29.135Z,95207.00
2022-09-28T06:17:57.391Z,95217.13
2022-09-28T06:20:24.476Z,95210.91
2022-09-28T06:22:52.856Z,95232.22
2022-09-28T06:25:19.453Z,95222.09
2022-09-28T06:27:55.081Z,95219.53
2022-09-28T06:30:22.444Z,95224.38
2022-09-28T06:32:52.435Z,95225.56
2022-09-28T06:35:18.792Z,95231.56
2022-09-28T06:37:45.291Z,95244.25
2022-09-28T06:40:11.629Z,95246.63
2022-09-28T06:42:37.980Z,95245.75
2022-09-28T06:45:04.627Z,95250.03
2022-09-28T06:47:33.288Z,95243.25
2022-09-28T06:50:00.033Z,95249.41
2022-09-28T06:52:26.385Z,95253.38
2022-09-28T06:54:52.740Z,95261.31
2022-09-28T06:57:19.203Z,95247.78
2022-09-28T06:59:45.570Z,95257.03
2022-09-28T07:02:14.386Z,95259.19
2022-09-28T07:04:43.622Z,95272.28
2022-09-28T07:07:11.520Z,95265.19
2022-09-28T07:09:43.697Z,95276.88
2022-09-28T07:12:13.374Z,95279.38
2022-09-28T07:14:47.673Z,95279.25
2022-09-28T07:17:15.059Z,95282.84
2022-09-28T07:19:41.928Z,95274.69
2022-09-28T07:22:08.274Z,95288.72
2022-09-28T07:24:34.593Z,95287.53
2022-09-28T07:27:01.859Z,95298.19
2022-09-28T07:29:28.221Z,95300.66
2022-09-28T07:31:54.600Z,95287.53
2022-09-28T07:34:23.080Z,95307.44
2022-09-28T07:36:49.429Z,95297.25
2022-09-28T07:39:15.771Z,95308.97
2022-09-28T07:41:42.980Z,95323.53
2022-09-28T07:44:09.319Z,95313.44
2022-09-28T07:46:36.962Z,95331.28
2022-09-28T07:49:09.822Z,95337.31
2022-09-28T07:51:38.649Z,95334.94
2022-09-28T07:54:06.463Z,95340.19
2022-09-28T07:56:34.793Z,95351.75
2022-09-28T07:59:01.162Z,95351.97
2022-09-28T08:01:27.520Z,95355.94
2022-09-28T08:03:56.174Z,95343.25
2022-09-28T08:06:23.183Z,95357.78
2022-09-28T08:08:50.219Z,95365.09
2022-09-28T08:11:18.705Z,95360.69
2022-09-28T08:13:46.412Z,95354.84
2022-09-28T08:16:12.945Z,95356.13
2022-09-28T08:18:39.438Z,95379.69
2022-09-28T08:21:24.722Z,95375.41
2022-09-28T08:23:51.339Z,95364.88
2022-09-28T08:26:17.703Z,95365.41
2022-09-28T08:28:45.124Z,95367.06
2022-09-28T08:31:11.648Z,95365.78
2022-09-28T08:33:38.462Z,95375.34
2022-09-28T08:36:05.948Z,95370.88
2022-09-28T08:38:32.735Z,95377.75
2022-09-28T08:41:11.535Z,95385.34
2022-09-28T08:43:40.775Z,95391.81
2022-09-28T08:46:09.615Z,95381.34
2022-09-28T08:48:52.262Z,95381.53
2022-09-28T08:52:09.457Z,95392.69
2022-09-28T08:54:41.551Z,95400.41
2022-09-28T08:57:33.438Z,95381.09
2022-09-28T09:00:02.439Z,95397.66
2022-09-28T09:02:39.259Z,95390.72
2022-09-28T09:05:13.662Z,95399.38
2022-09-28T09:07:45.807Z,95410.97
2022-09-28T09:10:48.035Z,95408.72
2022-09-28T09:13:23.540Z,95418.47
2022-09-28T09:16:18.911Z,95413.91
2022-09-28T09:18:55.716Z,95419.31
2022-09-28T09:21:37.021Z,95431.63
2022-09-28T09:24:27.840Z,95429.38
2022-09-28T09:27:17.035Z,95430.03
2022-09-28T09:29:54.852Z,95428.09
2022-09-28T09:32:42.667Z,95439.50
2022-09-28T09:35:46.206Z,95437.56
2022-09-28T09:38:24.673Z,95441.03
2022-09-28T09:41:06.187Z,95439.50
2022-09-28T09:44:14.721Z,95434.81
2022-09-28T09:46:54.902Z,95423.63
2022-09-28T09:49:33.719Z,95431.69
2022-09-28T09:52:14.615Z,95426.75
2022-09-28T09:54:49.748Z,95424.66
2022-09-28T09:57:25.781Z,95428.31
2022-09-28T09:59:52.353Z,95426.31
2022-09-28T10:02:28.064Z,95428.44
2022-09-28T10:05:01.289Z,95429.19
2022-09-28T10:07:44.774Z,95424.22
2022-09-28T10:10:22.853Z,95425.63
2022-09-28T10:12:51.084Z,95423.31
2022-09-28T10:15:24.399Z,95422.13
2022-09-28T10:17:51.290Z,95431.47
2022-09-28T10:20:19.029Z,95432.78
2022-09-28T10:22:46.238Z,95436.03
2022-09-28T10:25:13.260Z,95447.41
2022-09-28T10:27:45.169Z,95445.50
2022-09-28T10:30:16.920Z,95446.03
2022-09-28T10:32:48.870Z,95451.72
2022-09-28T10:35:17.933Z,95459.50
2022-09-28T10:38:06.023Z,95450.66
2022-09-28T10:40:46.591Z,95448.84
2022-09-28T10:43:18.444Z,95452.47
2022-09-28T10:45:45.184Z,95443.66
2022-09-28T10:48:34.225Z,95452.31
2022-09-28T10:51:04.577Z,95458.72
2022-09-28T10:53:31.002Z,95449.09
2022-09-28T10:56:08.580Z,95462.03
2022-09-28T10:58:40.552Z,95466.22
2022-09-28T11:01:10.638Z,95465.91
2022-09-28T11:03:50.111Z,95459.59
2022-09-28T11:06:24.449Z,95464.66
2022-09-28T11:08:51.397Z,95465.91
2022-09-28T11:11:21.738Z,95459.78
2022-09-28T11:13:53.780Z,95453.59
2022-09-28T11:16:22.929Z,95464.44
2022-09-28T11:18:49.819Z,95457.84
2022-09-28T11:21:21.353Z,95458.59
2022-09-28T11:24:19.119Z,95467.72
2022-09-28T11:26:48.346Z,95464.34
2022-09-28T11:29:30.741Z,95468.97
2022-09-28T11:32:03.224Z,95470.38
2022-09-28T11:34:54.962Z,95475.13
2022-09-28T11:37:28.771Z,95471.63
2022-09-28T11:40:30.376Z,95471.06
2022-09-28T11:43:33.599Z,95469.56
2022-09-28T11:46:30.489Z,95471.38
2022-09-28T11:49:07.293Z,95465.88
2022-09-28T11:51:37.190Z,95461.47
2022-09-28T11:54:14.391Z,95477.22
2022-09-28T11:56:45.941Z,95473.22
2022-09-28T11:59:18.543Z,95479.16
2022-09-28T12:01:57.012Z,95477.06
2022-09-28T12:04:38.451Z,95471.75
2022-09-28T12:07:17.538Z,95469.06
2022-09-28T12:09:46.876Z,95477.34
2022-09-28T12:12:24.517Z,95466.84
2022-09-28T12:14:55.480Z,95455.72
2022-09-28T12:17:38.774Z,95450.28
2022-09-28T12:20:19.079Z,95463.00
2022-09-28T12:23:08.164Z,95465.50
2022-09-28T12:25:42.561Z,95460.81
2022-09-28T12:28:18.730Z,95469.41
2022-09-28T12:30:47.459Z,95460.06
2022-09-28T12:33:17.693Z,95459.91
2022-09-28T12:36:07.621Z,95471.25
2022-09-28T12:38:54.112Z,95469.06
2022-09-28T12:41:50.591Z,95465.72
2022-09-28T12:44:34.939Z,95464.81
2022-09-28T12:47:22.363Z,95471.41
2022-09-28T12:53:14.875Z,95464.75
2022-09-28T12:55:56.217Z,95462.06
2022-09-28T12:58:48.775Z,95465.78
2022-09-28T13:01:45.240Z,95466.63
2022-09-28T13:04:33.565Z,95462.16
2022-09-28T13:07:09.519Z,95462.59
2022-09-28T13:10:12.168Z,95463.06
2022-09-28T13:12:52.524Z,95463.47
2022-09-28T13:15:39.866Z,95464.94
2022-09-28T13:18:16.631Z,95463.09
2022-09-28T13:21:19.232Z,95465.06
2022-09-28T13:23:48.404Z,95471.72
2022-09-28T13:26:37.701Z,95468.91
2022-09-28T13:29:12.569Z,95461.63
2022-09-28T13:31:48.825Z,95456.56
2022-09-28T13:34:28.802Z,95458.88
2022-09-28T13:37:14.436Z,95462.88
2022-09-28T13:39:52.073Z,95453.66
2022-09-28T13:42:41.388Z,95471.75
2022-09-28T13:45:13.737Z,95472.09
2022-09-28T13:48:01.931Z,95469.84
2022-09-28T13:50:46.635Z,95464.94
2022-09-28T13:53:23.145Z,95469.16
2022-09-28T13:56:15.948Z,95470.47
2022-09-28T13:58:58.376Z,95466.06
2022-09-28T14:01:45.410Z,95469.63
2022-09-28T14:04:19.630Z,95484.00
2022-09-28T14:06:57.500Z,95481.19
2022-09-28T14:09:26.787Z,95483.19
2022-09-28T14:12:03.460Z,95483.72
2022-09-28T14:14:43.620Z,95483.78
2022-09-28T14:17:18.909Z,95479.44
2022-09-28T14:19:51.919Z,95467.97
2022-09-28T14:22:40.200Z,95480.00
2022-09-28T14:25:23.515Z,95482.31
2022-09-28T14:28:01.160Z,95476.41
2022-09-28T14:30:46.173Z,95478.44
2022-09-28T14:33:23.480Z,95479.09
2022-09-28T14:36:04.644Z,95484.19
2022-09-28T14:38:54.424Z,95483.28
2022-09-28T14:41:31.241Z,95490.88
2022-09-28T14:44:08.337Z,95480.63
2022-09-28T14:46:40.536Z,95485.06
2022-09-28T14:49:23.228Z,95491.78
2022-09-28T14:51:58.335Z,95488.91
2022-09-28T14:54:27.367Z,95493.28
2022-09-28T14:56:53.869Z,95494.84
2022-09-28T14:59:24.756Z,95493.59
2022-09-28T15:02:01.197Z,95494.19
2022-09-28T15:04:30.174Z,95494.50
2022-09-28T15:06:58.040Z,95494.25
2022-09-28T15:09:27.829Z,95485.84
2022-09-28T15:12:00.690Z,95495.75
2022-09-28T15:14:31.892Z,95501.38
2022-09-28T15:17:09.590Z,95497.31
2022-09-28T15:20:00.760Z,95502.03
2022-09-28T15:22:27.324Z,95491.78
2022-09-28T15:25:01.376Z,95492.00
2022-09-28T15:27:36.974Z,95481.78
2022-09-28T15:30:24.029Z,95494.03
2022-09-28T15:32:50.899Z,95487.75
2022-09-28T15:35:26.299Z,95496.47
2022-09-28T15:37:54.806Z,95509.28
2022-09-28T15:40:33.167Z,95500.69
2022-09-28T15:42:59.974Z,95497.94
2022-09-28T15:45:31.954Z,95496.25
2022-09-28T15:48:26.512Z,95503.53
2022-09-28T15:51:05.095Z,95497.50
2022-09-28T15:53:32.907Z,95497.44
2022-09-28T15:56:03.546Z,95500.72
2022-09-28T15:58:29.905Z,95494.97
2022-09-28T16:01:21.768Z,95504.31
2022-09-28T16:03:48.321Z,95504.03
2022-09-28T16:06:14.834Z,95494.69
2022-09-28T16:08:45.664Z,95507.00
2022-09-28T16:11:24.188Z,95509.94
2022-09-28T16:13:51.976Z,95507.94
2022-09-28T16:16:25.212Z,95502.53
2022-09-28T16:18:51.783Z,95500.28
2022-09-28T16:21:40.039Z,95513.66
2022-09-28T16:24:08.417Z,95497.78
2022-09-28T16:26:38.878Z,95497.34
2022-09-28T16:29:25.699Z,95514.25
2022-09-28T16:31:53.139Z,95503.63
2022-09-28T16:34:24.348Z,95505.47
2022-09-28T16:36:51.049Z,95510.91
2022-09-28T16:39:18.752Z,95515.03
2022-09-28T16:41:49.893Z,95515.19
2022-09-28T16:44:23.142Z,95518.97
2022-09-28T16:46:50.974Z,95517.38
2022-09-28T16:49:20.500Z,95516.38
2022-09-28T16:51:47.780Z,95507.81
2022-09-28T16:54:38.155Z,95526.06
2022-09-28T16:57:06.468Z,95522.66
2022-09-28T16:59:33.275Z,95526.69
2022-09-28T17:02:00.155Z,95528.44
2022-09-28T17:04:26.845Z,95528.59
2022-09-28T17:06:55.468Z,95530.09
2022-09-28T17:09:23.274Z,95530.00
2022-09-28T17:11:55.973Z,95535.53
2022-09-28T17:14:23.457Z,95532.69
2022-09-28T17:17:11.566Z,95540.47
2022-09-28T17:19:39.809Z,95541.56
2022-09-28T17:22:07.865Z,95541.41
2022-09-28T17:24:34.216Z,95541.88
2022-09-28T17:27:02.075Z,95545.72
2022-09-28T17:29:29.456Z,95555.88
2022-09-28T17:31:55.898Z,95540.97
2022-09-28T17:34:22.234Z,95540.72
2022-09-28T17:36:48.693Z,95555.19
2022-09-28T17:39:17.531Z,95565.53
2022-09-28T17:41:44.250Z,95566.97
2022-09-28T17:44:14.966Z,95577.34
2022-09-28T17:46:48.950Z,95571.56
2022-09-28T17:49:16.772Z,95568.81
2022-09-28T17:51:43.149Z,95567.47
2022-09-28T17:54:09.583Z,95574.94
2022-09-28T17:56:36.516Z,95581.88
2022-09-28T17:59:05.833Z,95580.59
2022-09-28T18:01:35.809Z,95578.66
2022-09-28T18:04:04.871Z,95574.81
2022-09-28T18:06:35.063Z,95570.47
2022-09-28T18:09:04.635Z,95578.84
2022-09-28T18:11:32.635Z,95567.63
2022-09-28T18:13:59.055Z,95586.13
2022-09-28T18:16:27.772Z,95566.38
2022-09-28T18:18:54.166Z,95587.72
2022-09-28T18:21:20.582Z,95584.13
2022-09-28T18:23:46.954Z,95571.63
2022-09-28T18:26:15.128Z,95575.34
2022-09-28T18:28:41.959Z,95574.22
2022-09-28T18:31:10.558Z,95592.34
2022-09-28T18:33:37.604Z,95586.78
2022-09-28T18:36:05.425Z,95588.06
2022-09-28T18:38:32.199Z,95591.16
2022-09-28T18:41:10.107Z,95587.78
2022-09-28T18:43:36.954Z,95584.28
2022-09-28T18:46:08.116Z,95579.59
2022-09-28T18:48:35.925Z,95588.06
2022-09-28T18:51:03.055Z,95594.59
2022-09-28T18:53:33.211Z,95590.72
2022-09-28T18:56:05.653Z,95599.88
2022-09-28T18:58:34.691Z,95598.59
2022-09-28T19:01:28.570Z,95600.28
2022-09-28T19:03:54.432Z,95605.47
2022-09-28T19:06:21.249Z,95601.72
2022-09-28T19:08:53.280Z,95611.59
2022-09-28T19:11:19.734Z,95612.69
2022-09-28T19:13:46.098Z,95613.44
2022-09-28T19:16:16.513Z,95612.34
2022-09-28T19:18:43.811Z,95611.75
2022-09-28T19:21:13.192Z,95604.25
2022-09-28T19:23:40.716Z,95616.88
2022-09-28T19:26:13.872Z,95603.81
2022-09-28T19:28:40.260Z,95611.25
2022-09-28T19:31:10.501Z,95619.75
2022-09-28T19:33:37.796Z,95614.75
2022-09-28T19:36:09.130Z,95624.66
2022-09-28T19:38:37.751Z,95615.53
2022-09-28T19:41:35.885Z,95625.63
2022-09-28T19:44:07.064Z,95626.66
2022-09-28T19:46:34.936Z,95621.22
2022-09-28T19:49:02.170Z,95631.50
2022-09-28T19:51:28.794Z,95621.69
2022-09-28T19:53:55.276Z,95630.03
2022-09-28T19:56:21.705Z,95635.00
2022-09-28T19:58:48.089Z,95636.97
2022-09-28T20:01:14.469Z,95627.53
2022-09-28T20:03:40.881Z,95633.28
2022-09-28T20:06:07.617Z,95639.00
2022-09-28T20:08:34.132Z,95631.16
2022-09-28T20:11:00.527Z,95638.47
2022-09-28T20:13:35.256Z,95630.81
2022-09-28T20:16:09.198Z,95651.63
2022-09-28T20:18:38.114Z,95651.09
2022-09-28T20:21:07.222Z,95640.94
2022-09-28T20:23:36.140Z,95653.69
2022-09-28T20:26:04.708Z,95650.25
2022-09-28T20:28:31.690Z,95655.41
2022-09-28T20:31:09.728Z,95665.84
2022-09-28T20:33:36.554Z,95660.81
2022-09-28T20:36:07.929Z,95663.50
2022-09-28T20:38:35.089Z,95670.28
2022-09-28T20:41:02.800Z,95666.94
2022-09-28T20:43:31.256Z,95672.53
2022-09-28T20:46:05.201Z,95653.53
2022-09-28T20:48:32.184Z,95671.47
2022-09-28T20:51:04.677Z,95670.16
2022-09-28T20:53:31.688Z,95666.81
2022-09-28T20:56:02.848Z,95672.84
2022-09-28T20:58:29.668Z,95668.63
2022-09-28T21:01:07.886Z,95676.72
2022-09-28T21:03:35.446Z,95674.31
2022-09-28T21:06:02.444Z,95668.50
2022-09-28T21:08:29.656Z,95662.97
2022-09-28T21:10:56.037Z,95664.00
2022-09-28T21:13:23.441Z,95652.44
2022-09-28T21:15:49.923Z,95664.69
2022-09-28T21:18:17.619Z,95663.03
2022-09-28T21:20:51.053Z,95674.03
2022-09-28T21:23:21.598Z,95668.16
2022-09-28T21:25:50.410Z,95670.69
2022-09-28T21:28:17.311Z,95659.13
2022-09-28T21:30:45.305Z,95659.03
2022-09-28T21:33:11.734Z,95666.34
2022-09-28T21:35:40.948Z,95656.97
2022-09-28T21:38:07.340Z,95643.25
2022-09-28T21:40:33.755Z,95652.19
2022-09-28T21:43:00.131Z,95648.47
2022-09-28T21:45:26.522Z,95648.19
2022-09-28T21:47:53.862Z,95650.63
2022-09-28T21:50:22.729Z,95649.81
2022-09-28T21:52:54.353Z,95647.41
2022-09-28T21:55:22.851Z,95643.75
2022-09-28T21:57:50.977Z,95656.50
2022-09-28T22:00:20.281Z,95651.34
2022-09-28T22:02:46.695Z,95656.53
2022-09-28T22:05:13.444Z,95658.16
2022-09-28T22:07:41.099Z,95660.63
2022-09-28T22:10:10.308Z,95658.06
2022-09-28T22:12:37.032Z,95656.41
2022-09-28T22:15:04.387Z,95665.66
2022-09-28T22:17:30.851Z,95661.28
2022-09-28T22:19:57.408Z,95658.00
2022-09-28T22:22:28.413Z,95661.03
2022-09-28T22:24:56.062Z,95656.94
2022-09-28T22:27:22.463Z,95641.94
2022-09-28T22:29:50.931Z,95659.22
2022-09-28T22:32:17.341Z,95657.41
2022-09-28T22:34:43.692Z,95640.59
2022-09-28T22:37:10.035Z,95659.56
2022-09-28T22:39:37.863Z,95657.91
2022-09-28T22:42:04.601Z,95663.97
2022-09-28T22:44:30.970Z,95659.28
2022-09-28T22:46:57.347Z,95663.22
2022-09-28T22:49:24.343Z,95666.09
2022-09-28T22:51:50.681Z,95669.13
2022-09-28T22:54:17.087Z,95670.50
2022-09-28T22:56:44.096Z,95673.22
2022-09-28T22:59:11.778Z,95673.06
2022-09-28T23:01:38.792Z,95666.44
2022-09-28T23:04:05.433Z,95671.09
2022-09-28T23:06:32.992Z,95661.44
2022-09-28T23:09:00.458Z,95668.69
2022-09-28T23:11:28.092Z,95673.41
2022-09-28T23:13:56.807Z,95662.66
2022-09-28T23:16:25.729Z,95663.72
2022-09-28T23:18:54.187Z,95678.72
2022-09-28T23:21:23.994Z,95671.44
2022-09-28T23:23:58.782Z,95669.78
2022-09-28T23:26:28.687Z,95678.72
2022-09-28T23:28:55.636Z,95679.78
2022-09-28T23:31:24.714Z,95664.63
2022-09-28T23:33:51.623Z,95682.50
2022-09-28T23:36:18.382Z,95671.75
2022-09-28T23:38:44.764Z,95668.41
2022-09-28T23:41:11.315Z,95672.53
2022-09-28T23:43:37.822Z,95670.88
2022-09-28T23:46:05.092Z,95680.56
2022-09-28T23:48:31.792Z,95676.59
2022-09-28T23:50:58.250Z,95679.34
2022-09-28T23:53:24.690Z,95684.03
2022-09-28T23:55:51.059Z,95668.41
2022-09-28T23:58:17.449Z,95683.72
